sensor_id;sensor_type;location;lat;lon;timestamp;P1;durP1;ratioP1;P2;durP2;ratioP2
8889;SDS011;4481;43.406;24.454;2023-02-08T00:02:24;25.27;;;15.30;;
8889;SDS011;4481;43.406;24.454;2023-02-08T00:04:51;22.53;;;14.30;;
8889;SDS011;4481;43.406;24.454;2023-02-08T00:07:17;21.93;;;13.73;;
8889;SDS011;4481;43.406;24.454;2023-02-08T00:09:44;22.63;;;13.67;;
8889;SDS011;4481;43.406;24.454;2023-02-08T00:12:10;24.90;;;13.63;;
8889;SDS011;4481;43.406;24.454;2023-02-08T00:14:36;20.23;;;12.43;;
8889;SDS011;4481;43.406;24.454;2023-02-08T00:17:02;22.20;;;13.83;;
8889;SDS011;4481;43.406;24.454;2023-02-08T00:19:28;24.50;;;13.33;;
8889;SDS011;4481;43.406;24.454;2023-02-08T00:21:55;22.97;;;13.77;;
8889;SDS011;4481;43.406;24.454;2023-02-08T00:24:21;22.40;;;13.60;;
8889;SDS011;4481;43.406;24.454;2023-02-08T00:26:47;22.53;;;12.67;;
8889;SDS011;4481;43.406;24.454;2023-02-08T00:29:13;21.93;;;13.73;;
8889;SDS011;4481;43.406;24.454;2023-02-08T00:31:39;23.63;;;13.00;;
8889;SDS011;4481;43.406;24.454;2023-02-08T00:34:06;20.60;;;12.63;;
8889;SDS011;4481;43.406;24.454;2023-02-08T00:36:33;22.23;;;13.83;;
8889;SDS011;4481;43.406;24.454;2023-02-08T00:38:59;20.17;;;12.93;;
8889;SDS011;4481;43.406;24.454;2023-02-08T00:41:26;26.80;;;14.53;;
8889;SDS011;4481;43.406;24.454;2023-02-08T00:43:52;23.23;;;13.17;;
8889;SDS011;4481;43.406;24.454;2023-02-08T00:46:18;22.10;;;13.97;;
8889;SDS011;4481;43.406;24.454;2023-02-08T00:48:45;19.73;;;12.97;;
8889;SDS011;4481;43.406;24.454;2023-02-08T00:51:11;21.67;;;13.83;;
8889;SDS011;4481;43.406;24.454;2023-02-08T00:53:41;23.17;;;13.77;;
8889;SDS011;4481;43.406;24.454;2023-02-08T00:56:10;21.70;;;13.77;;
8889;SDS011;4481;43.406;24.454;2023-02-08T00:58:37;21.60;;;13.80;;
8889;SDS011;4481;43.406;24.454;2023-02-08T01:01:04;20.33;;;12.87;;
8889;SDS011;4481;43.406;24.454;2023-02-08T01:03:32;20.37;;;13.67;;
8889;SDS011;4481;43.406;24.454;2023-02-08T01:05:59;24.80;;;14.07;;
8889;SDS011;4481;43.406;24.454;2023-02-08T01:08:26;24.43;;;13.00;;
8889;SDS011;4481;43.406;24.454;2023-02-08T01:10:52;23.57;;;14.03;;
8889;SDS011;4481;43.406;24.454;2023-02-08T01:13:19;17.70;;;13.17;;
8889;SDS011;4481;43.406;24.454;2023-02-08T01:15:45;26.23;;;13.77;;
8889;SDS011;4481;43.406;24.454;2023-02-08T01:18:11;26.20;;;13.77;;
8889;SDS011;4481;43.406;24.454;2023-02-08T01:20:37;22.27;;;12.93;;
8889;SDS011;4481;43.406;24.454;2023-02-08T01:23:03;19.97;;;12.67;;
8889;SDS011;4481;43.406;24.454;2023-02-08T01:25:29;22.40;;;13.93;;
8889;SDS011;4481;43.406;24.454;2023-02-08T01:27:56;17.93;;;12.60;;
8889;SDS011;4481;43.406;24.454;2023-02-08T01:30:23;20.07;;;13.37;;
8889;SDS011;4481;43.406;24.454;2023-02-08T01:32:49;21.57;;;14.00;;
8889;SDS011;4481;43.406;24.454;2023-02-08T01:35:16;22.40;;;13.27;;
8889;SDS011;4481;43.406;24.454;2023-02-08T01:37:42;19.73;;;12.40;;
8889;SDS011;4481;43.406;24.454;2023-02-08T01:40:08;19.83;;;13.50;;
8889;SDS011;4481;43.406;24.454;2023-02-08T01:42:35;21.07;;;12.20;;
8889;SDS011;4481;43.406;24.454;2023-02-08T01:47:55;20.13;;;12.97;;
8889;SDS011;4481;43.406;24.454;2023-02-08T01:50:28;20.10;;;12.57;;
8889;SDS011;4481;43.406;24.454;2023-02-08T01:52:59;23.13;;;12.97;;
8889;SDS011;4481;43.406;24.454;2023-02-08T01:55:26;19.03;;;12.43;;
8889;SDS011;4481;43.406;24.454;2023-02-08T01:57:56;19.10;;;12.13;;
8889;SDS011;4481;43.406;24.454;2023-02-08T02:00:27;20.27;;;12.93;;
8889;SDS011;4481;43.406;24.454;2023-02-08T02:02:54;19.67;;;13.73;;
8889;SDS011;4481;43.406;24.454;2023-02-08T02:05:24;21.63;;;14.20;;
8889;SDS011;4481;43.406;24.454;2023-02-08T02:07:53;21.70;;;13.67;;
8889;SDS011;4481;43.406;24.454;2023-02-08T02:10:23;19.93;;;13.73;;
8889;SDS011;4481;43.406;24.454;2023-02-08T02:12:51;20.63;;;13.87;;
8889;SDS011;4481;43.406;24.454;2023-02-08T02:15:19;22.17;;;13.57;;
8889;SDS011;4481;43.406;24.454;2023-02-08T02:17:47;15.67;;;11.23;;
8889;SDS011;4481;43.406;24.454;2023-02-08T02:20:14;19.57;;;11.87;;
8889;SDS011;4481;43.406;24.454;2023-02-08T02:25:50;22.30;;;12.83;;
8889;SDS011;4481;43.406;24.454;2023-02-08T02:31:42;19.47;;;12.47;;
8889;SDS011;4481;43.406;24.454;2023-02-08T02:34:25;17.50;;;11.63;;
8889;SDS011;4481;43.406;24.454;2023-02-08T02:36:59;19.60;;;11.57;;
8889;SDS011;4481;43.406;24.454;2023-02-08T02:39:32;20.73;;;12.80;;
8889;SDS011;4481;43.406;24.454;2023-02-08T02:42:05;20.37;;;12.77;;
8889;SDS011;4481;43.406;24.454;2023-02-08T02:44:59;21.23;;;12.20;;
8889;SDS011;4481;43.406;24.454;2023-02-08T02:47:33;19.07;;;12.47;;
8889;SDS011;4481;43.406;24.454;2023-02-08T02:50:05;21.67;;;12.17;;
8889;SDS011;4481;43.406;24.454;2023-02-08T02:52:37;18.60;;;12.43;;
8889;SDS011;4481;43.406;24.454;2023-02-08T02:55:10;17.50;;;12.30;;
8889;SDS011;4481;43.406;24.454;2023-02-08T02:57:40;18.03;;;12.70;;
8889;SDS011;4481;43.406;24.454;2023-02-08T03:00:09;21.27;;;12.33;;
8889;SDS011;4481;43.406;24.454;2023-02-08T03:02:39;19.30;;;12.53;;
8889;SDS011;4481;43.406;24.454;2023-02-08T03:05:06;21.47;;;14.23;;
8889;SDS011;4481;43.406;24.454;2023-02-08T03:10:44;25.10;;;15.10;;
8889;SDS011;4481;43.406;24.454;2023-02-08T03:13:21;23.00;;;13.57;;
8889;SDS011;4481;43.406;24.454;2023-02-08T03:15:58;19.60;;;13.10;;
8889;SDS011;4481;43.406;24.454;2023-02-08T03:18:34;19.33;;;11.93;;
8889;SDS011;4481;43.406;24.454;2023-02-08T03:21:07;21.87;;;12.97;;
8889;SDS011;4481;43.406;24.454;2023-02-08T03:23:37;20.13;;;12.70;;
8889;SDS011;4481;43.406;24.454;2023-02-08T03:26:14;18.40;;;12.10;;
8889;SDS011;4481;43.406;24.454;2023-02-08T03:28:45;21.90;;;13.30;;
8889;SDS011;4481;43.406;24.454;2023-02-08T03:31:22;22.70;;;14.47;;
8889;SDS011;4481;43.406;24.454;2023-02-08T03:33:56;22.50;;;14.03;;
8889;SDS011;4481;43.406;24.454;2023-02-08T03:36:28;27.40;;;15.93;;
8889;SDS011;4481;43.406;24.454;2023-02-08T03:38:57;21.10;;;13.73;;
8889;SDS011;4481;43.406;24.454;2023-02-08T03:41:28;25.43;;;15.23;;
8889;SDS011;4481;43.406;24.454;2023-02-08T03:43:59;22.17;;;14.57;;
8889;SDS011;4481;43.406;24.454;2023-02-08T03:46:28;28.57;;;14.93;;
8889;SDS011;4481;43.406;24.454;2023-02-08T03:49:00;19.40;;;12.37;;
8889;SDS011;4481;43.406;24.454;2023-02-08T03:51:29;23.83;;;13.87;;
8889;SDS011;4481;43.406;24.454;2023-02-08T03:54:00;19.57;;;12.83;;
8889;SDS011;4481;43.406;24.454;2023-02-08T03:56:30;19.40;;;13.00;;
8889;SDS011;4481;43.406;24.454;2023-02-08T03:59:03;22.47;;;12.20;;
8889;SDS011;4481;43.406;24.454;2023-02-08T04:01:35;16.83;;;10.77;;
8889;SDS011;4481;43.406;24.454;2023-02-08T04:04:06;18.30;;;13.27;;
8889;SDS011;4481;43.406;24.454;2023-02-08T04:06:33;20.30;;;13.47;;
8889;SDS011;4481;43.406;24.454;2023-02-08T04:08:59;25.53;;;16.50;;
8889;SDS011;4481;43.406;24.454;2023-02-08T04:11:25;25.93;;;15.27;;
8889;SDS011;4481;43.406;24.454;2023-02-08T04:13:51;23.40;;;13.43;;
8889;SDS011;4481;43.406;24.454;2023-02-08T04:16:18;26.17;;;14.93;;
8889;SDS011;4481;43.406;24.454;2023-02-08T04:18:44;23.57;;;13.83;;
8889;SDS011;4481;43.406;24.454;2023-02-08T04:21:10;21.00;;;12.67;;
8889;SDS011;4481;43.406;24.454;2023-02-08T04:23:37;17.93;;;12.60;;
8889;SDS011;4481;43.406;24.454;2023-02-08T04:26:03;19.07;;;12.73;;
8889;SDS011;4481;43.406;24.454;2023-02-08T04:28:31;23.43;;;13.63;;
8889;SDS011;4481;43.406;24.454;2023-02-08T04:30:57;18.90;;;15.07;;
8889;SDS011;4481;43.406;24.454;2023-02-08T04:33:23;21.93;;;13.53;;
8889;SDS011;4481;43.406;24.454;2023-02-08T04:35:50;20.10;;;13.57;;
8889;SDS011;4481;43.406;24.454;2023-02-08T04:38:17;17.77;;;12.27;;
8889;SDS011;4481;43.406;24.454;2023-02-08T04:40:43;25.07;;;13.07;;
8889;SDS011;4481;43.406;24.454;2023-02-08T04:43:09;16.93;;;13.17;;
8889;SDS011;4481;43.406;24.454;2023-02-08T04:45:35;23.67;;;13.73;;
8889;SDS011;4481;43.406;24.454;2023-02-08T04:48:02;19.93;;;13.80;;
8889;SDS011;4481;43.406;24.454;2023-02-08T04:50:29;25.43;;;15.70;;
8889;SDS011;4481;43.406;24.454;2023-02-08T04:52:55;31.13;;;16.57;;
8889;SDS011;4481;43.406;24.454;2023-02-08T04:55:22;28.57;;;17.03;;
8889;SDS011;4481;43.406;24.454;2023-02-08T04:57:48;29.37;;;17.47;;
8889;SDS011;4481;43.406;24.454;2023-02-08T05:00:14;26.33;;;16.30;;
8889;SDS011;4481;43.406;24.454;2023-02-08T05:02:41;29.57;;;17.53;;
8889;SDS011;4481;43.406;24.454;2023-02-08T05:05:07;25.27;;;16.30;;
8889;SDS011;4481;43.406;24.454;2023-02-08T05:07:34;27.27;;;16.70;;
8889;SDS011;4481;43.406;24.454;2023-02-08T05:10:00;26.20;;;16.43;;
8889;SDS011;4481;43.406;24.454;2023-02-08T05:12:27;26.40;;;15.77;;
8889;SDS011;4481;43.406;24.454;2023-02-08T05:14:53;24.40;;;13.57;;
8889;SDS011;4481;43.406;24.454;2023-02-08T05:17:19;23.27;;;13.90;;
8889;SDS011;4481;43.406;24.454;2023-02-08T05:19:45;25.40;;;13.90;;
8889;SDS011;4481;43.406;24.454;2023-02-08T05:22:11;22.90;;;14.23;;
8889;SDS011;4481;43.406;24.454;2023-02-08T05:24:37;20.80;;;13.23;;
8889;SDS011;4481;43.406;24.454;2023-02-08T05:27:03;18.17;;;12.97;;
8889;SDS011;4481;43.406;24.454;2023-02-08T05:29:30;21.53;;;13.70;;
8889;SDS011;4481;43.406;24.454;2023-02-08T05:31:56;20.83;;;13.33;;
8889;SDS011;4481;43.406;24.454;2023-02-08T05:34:23;20.03;;;13.10;;
8889;SDS011;4481;43.406;24.454;2023-02-08T05:36:49;22.63;;;13.50;;
8889;SDS011;4481;43.406;24.454;2023-02-08T05:39:16;22.10;;;13.83;;
8889;SDS011;4481;43.406;24.454;2023-02-08T05:41:44;18.13;;;13.00;;
8889;SDS011;4481;43.406;24.454;2023-02-08T05:44:10;21.63;;;13.17;;
8889;SDS011;4481;43.406;24.454;2023-02-08T05:46:37;21.23;;;12.97;;
8889;SDS011;4481;43.406;24.454;2023-02-08T05:49:03;22.93;;;13.47;;
8889;SDS011;4481;43.406;24.454;2023-02-08T05:51:29;21.37;;;12.57;;
8889;SDS011;4481;43.406;24.454;2023-02-08T05:53:55;24.40;;;15.50;;
8889;SDS011;4481;43.406;24.454;2023-02-08T05:56:22;27.17;;;15.40;;
8889;SDS011;4481;43.406;24.454;2023-02-08T05:58:48;23.57;;;17.00;;
8889;SDS011;4481;43.406;24.454;2023-02-08T06:01:14;27.63;;;16.37;;
8889;SDS011;4481;43.406;24.454;2023-02-08T06:03:41;25.13;;;15.93;;
8889;SDS011;4481;43.406;24.454;2023-02-08T06:06:07;24.03;;;16.17;;
8889;SDS011;4481;43.406;24.454;2023-02-08T06:08:35;22.50;;;14.50;;
8889;SDS011;4481;43.406;24.454;2023-02-08T06:11:02;23.87;;;14.27;;
8889;SDS011;4481;43.406;24.454;2023-02-08T06:13:28;27.27;;;16.10;;
8889;SDS011;4481;43.406;24.454;2023-02-08T06:15:55;26.37;;;15.70;;
8889;SDS011;4481;43.406;24.454;2023-02-08T06:18:22;27.97;;;18.20;;
8889;SDS011;4481;43.406;24.454;2023-02-08T06:20:51;34.97;;;15.53;;
8889;SDS011;4481;43.406;24.454;2023-02-08T06:23:18;24.37;;;14.67;;
8889;SDS011;4481;43.406;24.454;2023-02-08T06:25:45;24.00;;;14.70;;
8889;SDS011;4481;43.406;24.454;2023-02-08T06:28:11;22.67;;;13.67;;
8889;SDS011;4481;43.406;24.454;2023-02-08T06:30:37;20.13;;;13.27;;
8889;SDS011;4481;43.406;24.454;2023-02-08T06:33:04;27.40;;;13.40;;
8889;SDS011;4481;43.406;24.454;2023-02-08T06:35:30;22.57;;;13.60;;
8889;SDS011;4481;43.406;24.454;2023-02-08T06:37:57;24.07;;;13.73;;
8889;SDS011;4481;43.406;24.454;2023-02-08T06:40:23;20.20;;;13.07;;
8889;SDS011;4481;43.406;24.454;2023-02-08T06:42:50;22.00;;;13.37;;
8889;SDS011;4481;43.406;24.454;2023-02-08T06:45:16;25.37;;;13.17;;
8889;SDS011;4481;43.406;24.454;2023-02-08T06:47:43;23.57;;;13.83;;
8889;SDS011;4481;43.406;24.454;2023-02-08T06:50:09;23.00;;;12.57;;
8889;SDS011;4481;43.406;24.454;2023-02-08T06:52:35;21.20;;;14.50;;
8889;SDS011;4481;43.406;24.454;2023-02-08T06:55:03;19.80;;;13.50;;
8889;SDS011;4481;43.406;24.454;2023-02-08T06:57:29;19.33;;;12.73;;
8889;SDS011;4481;43.406;24.454;2023-02-08T06:59:55;22.03;;;14.30;;
8889;SDS011;4481;43.406;24.454;2023-02-08T07:02:21;22.73;;;14.47;;
8889;SDS011;4481;43.406;24.454;2023-02-08T07:04:48;20.50;;;13.87;;
8889;SDS011;4481;43.406;24.454;2023-02-08T07:07:15;25.80;;;14.27;;
8889;SDS011;4481;43.406;24.454;2023-02-08T07:09:42;23.70;;;14.70;;
8889;SDS011;4481;43.406;24.454;2023-02-08T07:12:09;28.83;;;14.47;;
8889;SDS011;4481;43.406;24.454;2023-02-08T07:14:36;22.63;;;15.20;;
8889;SDS011;4481;43.406;24.454;2023-02-08T07:17:04;23.43;;;15.40;;
8889;SDS011;4481;43.406;24.454;2023-02-08T07:19:31;23.97;;;15.77;;
8889;SDS011;4481;43.406;24.454;2023-02-08T07:21:57;21.40;;;14.77;;
8889;SDS011;4481;43.406;24.454;2023-02-08T07:24:27;26.03;;;14.27;;
8889;SDS011;4481;43.406;24.454;2023-02-08T07:26:53;26.37;;;14.53;;
8889;SDS011;4481;43.406;24.454;2023-02-08T07:29:20;24.97;;;16.80;;
8889;SDS011;4481;43.406;24.454;2023-02-08T07:31:48;26.10;;;15.60;;
8889;SDS011;4481;43.406;24.454;2023-02-08T07:34:14;23.13;;;15.37;;
8889;SDS011;4481;43.406;24.454;2023-02-08T07:36:45;19.67;;;14.80;;
8889;SDS011;4481;43.406;24.454;2023-02-08T07:39:12;21.90;;;15.00;;
8889;SDS011;4481;43.406;24.454;2023-02-08T07:41:38;21.63;;;15.27;;
8889;SDS011;4481;43.406;24.454;2023-02-08T07:44:04;31.10;;;16.43;;
8889;SDS011;4481;43.406;24.454;2023-02-08T07:46:32;25.57;;;15.33;;
8889;SDS011;4481;43.406;24.454;2023-02-08T07:48:58;22.97;;;13.73;;
8889;SDS011;4481;43.406;24.454;2023-02-08T07:51:25;23.10;;;14.67;;
8889;SDS011;4481;43.406;24.454;2023-02-08T07:53:51;24.33;;;15.03;;
8889;SDS011;4481;43.406;24.454;2023-02-08T07:56:17;22.73;;;15.30;;
8889;SDS011;4481;43.406;24.454;2023-02-08T07:58:44;23.67;;;15.13;;
8889;SDS011;4481;43.406;24.454;2023-02-08T08:01:10;25.43;;;15.13;;
8889;SDS011;4481;43.406;24.454;2023-02-08T08:03:37;25.70;;;14.83;;
8889;SDS011;4481;43.406;24.454;2023-02-08T08:06:03;33.97;;;17.77;;
8889;SDS011;4481;43.406;24.454;2023-02-08T08:08:31;28.70;;;17.03;;
8889;SDS011;4481;43.406;24.454;2023-02-08T08:10:57;26.33;;;16.50;;
8889;SDS011;4481;43.406;24.454;2023-02-08T08:13:24;29.57;;;18.40;;
8889;SDS011;4481;43.406;24.454;2023-02-08T08:15:50;27.60;;;16.70;;
8889;SDS011;4481;43.406;24.454;2023-02-08T08:18:16;31.93;;;17.97;;
8889;SDS011;4481;43.406;24.454;2023-02-08T08:20:43;26.57;;;16.20;;
8889;SDS011;4481;43.406;24.454;2023-02-08T08:23:09;28.90;;;17.73;;
8889;SDS011;4481;43.406;24.454;2023-02-08T08:25:36;25.03;;;13.60;;
8889;SDS011;4481;43.406;24.454;2023-02-08T08:28:02;23.23;;;12.23;;
8889;SDS011;4481;43.406;24.454;2023-02-08T08:30:29;18.53;;;11.83;;
8889;SDS011;4481;43.406;24.454;2023-02-08T08:32:55;17.43;;;12.17;;
8889;SDS011;4481;43.406;24.454;2023-02-08T08:35:21;15.73;;;9.93;;
8889;SDS011;4481;43.406;24.454;2023-02-08T08:37:49;19.40;;;12.30;;
8889;SDS011;4481;43.406;24.454;2023-02-08T08:40:16;12.93;;;8.17;;
8889;SDS011;4481;43.406;24.454;2023-02-08T08:42:42;15.70;;;9.53;;
8889;SDS011;4481;43.406;24.454;2023-02-08T08:45:11;17.23;;;11.90;;
8889;SDS011;4481;43.406;24.454;2023-02-08T08:47:37;16.67;;;10.03;;
8889;SDS011;4481;43.406;24.454;2023-02-08T08:50:04;15.10;;;10.23;;
8889;SDS011;4481;43.406;24.454;2023-02-08T08:52:31;19.60;;;11.00;;
8889;SDS011;4481;43.406;24.454;2023-02-08T08:54:58;12.90;;;9.17;;
8889;SDS011;4481;43.406;24.454;2023-02-08T08:57:24;14.43;;;9.03;;
8889;SDS011;4481;43.406;24.454;2023-02-08T08:59:50;21.67;;;11.33;;
8889;SDS011;4481;43.406;24.454;2023-02-08T09:02:16;14.73;;;9.77;;
8889;SDS011;4481;43.406;24.454;2023-02-08T09:04:42;13.97;;;8.20;;
8889;SDS011;4481;43.406;24.454;2023-02-08T09:07:09;14.43;;;10.27;;
8889;SDS011;4481;43.406;24.454;2023-02-08T09:09:35;14.07;;;8.30;;
8889;SDS011;4481;43.406;24.454;2023-02-08T09:12:02;16.00;;;10.23;;
8889;SDS011;4481;43.406;24.454;2023-02-08T09:14:29;13.67;;;9.00;;
8889;SDS011;4481;43.406;24.454;2023-02-08T09:16:56;15.10;;;9.07;;
8889;SDS011;4481;43.406;24.454;2023-02-08T09:19:22;11.67;;;7.50;;
8889;SDS011;4481;43.406;24.454;2023-02-08T09:21:48;17.40;;;8.40;;
8889;SDS011;4481;43.406;24.454;2023-02-08T09:24:15;18.10;;;9.77;;
8889;SDS011;4481;43.406;24.454;2023-02-08T09:26:42;12.13;;;8.53;;
8889;SDS011;4481;43.406;24.454;2023-02-08T09:29:10;16.63;;;9.67;;
8889;SDS011;4481;43.406;24.454;2023-02-08T09:31:36;13.70;;;9.03;;
8889;SDS011;4481;43.406;24.454;2023-02-08T09:34:04;13.80;;;8.20;;
8889;SDS011;4481;43.406;24.454;2023-02-08T09:36:32;12.20;;;8.70;;
8889;SDS011;4481;43.406;24.454;2023-02-08T09:39:00;16.40;;;9.33;;
8889;SDS011;4481;43.406;24.454;2023-02-08T09:41:36;12.77;;;8.27;;
8889;SDS011;4481;43.406;24.454;2023-02-08T09:44:16;13.53;;;10.50;;
8889;SDS011;4481;43.406;24.454;2023-02-08T09:46:49;14.07;;;8.73;;
8889;SDS011;4481;43.406;24.454;2023-02-08T09:49:22;15.07;;;9.13;;
8889;SDS011;4481;43.406;24.454;2023-02-08T09:51:51;13.90;;;9.40;;
8889;SDS011;4481;43.406;24.454;2023-02-08T09:54:21;15.47;;;8.70;;
8889;SDS011;4481;43.406;24.454;2023-02-08T09:56:52;14.27;;;10.70;;
8889;SDS011;4481;43.406;24.454;2023-02-08T09:59:22;11.70;;;8.03;;
8889;SDS011;4481;43.406;24.454;2023-02-08T10:01:52;12.23;;;10.53;;
8889;SDS011;4481;43.406;24.454;2023-02-08T10:04:24;13.67;;;9.47;;
8889;SDS011;4481;43.406;24.454;2023-02-08T10:07:00;12.97;;;8.47;;
8889;SDS011;4481;43.406;24.454;2023-02-08T10:09:27;13.73;;;9.53;;
8889;SDS011;4481;43.406;24.454;2023-02-08T10:11:57;10.63;;;7.30;;
8889;SDS011;4481;43.406;24.454;2023-02-08T10:17:36;14.17;;;9.17;;
8889;SDS011;4481;43.406;24.454;2023-02-08T10:20:17;15.07;;;10.93;;
8889;SDS011;4481;43.406;24.454;2023-02-08T10:22:55;17.30;;;8.23;;
8889;SDS011;4481;43.406;24.454;2023-02-08T10:25:33;14.50;;;8.67;;
8889;SDS011;4481;43.406;24.454;2023-02-08T10:28:18;12.87;;;8.87;;
8889;SDS011;4481;43.406;24.454;2023-02-08T10:31:01;13.63;;;10.17;;
8889;SDS011;4481;43.406;24.454;2023-02-08T10:33:35;15.73;;;9.00;;
8889;SDS011;4481;43.406;24.454;2023-02-08T10:36:10;17.33;;;9.40;;
8889;SDS011;4481;43.406;24.454;2023-02-08T10:38:44;15.33;;;9.63;;
8889;SDS011;4481;43.406;24.454;2023-02-08T10:41:14;14.13;;;7.97;;
8889;SDS011;4481;43.406;24.454;2023-02-08T10:43:45;15.40;;;9.73;;
8889;SDS011;4481;43.406;24.454;2023-02-08T10:46:19;13.07;;;9.00;;
8889;SDS011;4481;43.406;24.454;2023-02-08T10:48:59;11.30;;;8.37;;
8889;SDS011;4481;43.406;24.454;2023-02-08T10:51:32;12.30;;;8.63;;
8889;SDS011;4481;43.406;24.454;2023-02-08T10:53:59;14.57;;;10.10;;
8889;SDS011;4481;43.406;24.454;2023-02-08T10:56:36;15.37;;;11.50;;
8889;SDS011;4481;43.406;24.454;2023-02-08T10:59:12;14.93;;;9.03;;
8889;SDS011;4481;43.406;24.454;2023-02-08T11:01:42;13.07;;;8.37;;
8889;SDS011;4481;43.406;24.454;2023-02-08T11:04:11;12.03;;;8.67;;
8889;SDS011;4481;43.406;24.454;2023-02-08T11:06:38;14.03;;;9.27;;
8889;SDS011;4481;43.406;24.454;2023-02-08T11:09:06;16.10;;;8.93;;
8889;SDS011;4481;43.406;24.454;2023-02-08T11:11:48;13.00;;;8.90;;
8889;SDS011;4481;43.406;24.454;2023-02-08T11:14:18;10.70;;;7.40;;
8889;SDS011;4481;43.406;24.454;2023-02-08T11:16:50;11.50;;;7.20;;
8889;SDS011;4481;43.406;24.454;2023-02-08T11:19:20;14.57;;;9.70;;
8889;SDS011;4481;43.406;24.454;2023-02-08T11:21:57;13.33;;;8.30;;
8889;SDS011;4481;43.406;24.454;2023-02-08T11:24:26;11.63;;;8.13;;
8889;SDS011;4481;43.406;24.454;2023-02-08T11:26:58;14.13;;;8.80;;
8889;SDS011;4481;43.406;24.454;2023-02-08T11:29:27;12.23;;;8.87;;
8889;SDS011;4481;43.406;24.454;2023-02-08T11:31:56;13.10;;;8.70;;
8889;SDS011;4481;43.406;24.454;2023-02-08T11:34:24;14.57;;;9.90;;
8889;SDS011;4481;43.406;24.454;2023-02-08T11:36:52;16.40;;;9.63;;
8889;SDS011;4481;43.406;24.454;2023-02-08T11:39:21;14.43;;;8.97;;
8889;SDS011;4481;43.406;24.454;2023-02-08T11:41:50;14.00;;;8.63;;
8889;SDS011;4481;43.406;24.454;2023-02-08T11:44:21;13.73;;;8.90;;
8889;SDS011;4481;43.406;24.454;2023-02-08T11:46:50;16.17;;;10.47;;
8889;SDS011;4481;43.406;24.454;2023-02-08T11:49:20;11.97;;;9.13;;
8889;SDS011;4481;43.406;24.454;2023-02-08T11:51:48;15.87;;;8.57;;
8889;SDS011;4481;43.406;24.454;2023-02-08T11:57:08;14.63;;;9.50;;
8889;SDS011;4481;43.406;24.454;2023-02-08T11:59:37;12.30;;;8.27;;
8889;SDS011;4481;43.406;24.454;2023-02-08T12:02:17;15.13;;;9.23;;
8889;SDS011;4481;43.406;24.454;2023-02-08T12:04:53;13.30;;;9.07;;
8889;SDS011;4481;43.406;24.454;2023-02-08T12:07:20;13.53;;;9.07;;
8889;SDS011;4481;43.406;24.454;2023-02-08T12:10:07;14.40;;;9.17;;
8889;SDS011;4481;43.406;24.454;2023-02-08T12:12:56;13.43;;;9.40;;
8889;SDS011;4481;43.406;24.454;2023-02-08T12:15:38;15.60;;;9.20;;
8889;SDS011;4481;43.406;24.454;2023-02-08T12:18:15;10.17;;;7.77;;
8889;SDS011;4481;43.406;24.454;2023-02-08T12:20:51;13.73;;;8.33;;
8889;SDS011;4481;43.406;24.454;2023-02-08T12:23:39;13.30;;;8.60;;
8889;SDS011;4481;43.406;24.454;2023-02-08T12:26:22;12.23;;;8.27;;
8889;SDS011;4481;43.406;24.454;2023-02-08T12:29:02;14.30;;;8.50;;
8889;SDS011;4481;43.406;24.454;2023-02-08T12:31:43;16.57;;;9.03;;
8889;SDS011;4481;43.406;24.454;2023-02-08T12:34:21;14.83;;;8.77;;
8889;SDS011;4481;43.406;24.454;2023-02-08T12:37:05;12.97;;;9.10;;
8889;SDS011;4481;43.406;24.454;2023-02-08T12:39:57;15.13;;;9.83;;
8889;SDS011;4481;43.406;24.454;2023-02-08T12:42:53;13.13;;;9.47;;
8889;SDS011;4481;43.406;24.454;2023-02-08T12:45:44;14.73;;;9.00;;
8889;SDS011;4481;43.406;24.454;2023-02-08T12:48:36;13.27;;;9.00;;
8889;SDS011;4481;43.406;24.454;2023-02-08T12:51:14;13.53;;;9.23;;
8889;SDS011;4481;43.406;24.454;2023-02-08T12:53:49;16.93;;;10.33;;
8889;SDS011;4481;43.406;24.454;2023-02-08T12:56:19;12.47;;;9.07;;
8889;SDS011;4481;43.406;24.454;2023-02-08T12:58:50;14.90;;;9.60;;
8889;SDS011;4481;43.406;24.454;2023-02-08T13:01:19;17.43;;;10.70;;
8889;SDS011;4481;43.406;24.454;2023-02-08T13:03:47;16.87;;;10.60;;
8889;SDS011;4481;43.406;24.454;2023-02-08T13:06:21;16.23;;;10.40;;
8889;SDS011;4481;43.406;24.454;2023-02-08T13:08:52;13.17;;;8.97;;
8889;SDS011;4481;43.406;24.454;2023-02-08T13:11:27;13.30;;;9.03;;
8889;SDS011;4481;43.406;24.454;2023-02-08T13:13:57;19.20;;;11.23;;
8889;SDS011;4481;43.406;24.454;2023-02-08T13:16:29;17.83;;;10.93;;
8889;SDS011;4481;43.406;24.454;2023-02-08T13:19:03;16.87;;;10.40;;
8889;SDS011;4481;43.406;24.454;2023-02-08T13:21:47;17.77;;;11.33;;
8889;SDS011;4481;43.406;24.454;2023-02-08T13:24:18;16.97;;;10.07;;
8889;SDS011;4481;43.406;24.454;2023-02-08T13:26:51;13.40;;;9.50;;
8889;SDS011;4481;43.406;24.454;2023-02-08T13:29:18;16.60;;;11.13;;
8889;SDS011;4481;43.406;24.454;2023-02-08T13:31:47;21.70;;;12.33;;
8889;SDS011;4481;43.406;24.454;2023-02-08T13:34:17;27.57;;;13.07;;
8889;SDS011;4481;43.406;24.454;2023-02-08T13:36:53;16.00;;;11.03;;
8889;SDS011;4481;43.406;24.454;2023-02-08T13:39:30;18.30;;;12.43;;
8889;SDS011;4481;43.406;24.454;2023-02-08T13:42:00;18.80;;;12.33;;
8889;SDS011;4481;43.406;24.454;2023-02-08T13:44:28;18.73;;;11.03;;
8889;SDS011;4481;43.406;24.454;2023-02-08T13:46:57;18.17;;;11.93;;
8889;SDS011;4481;43.406;24.454;2023-02-08T13:49:43;16.03;;;10.43;;
8889;SDS011;4481;43.406;24.454;2023-02-08T13:58:26;21.43;;;11.80;;
8889;SDS011;4481;43.406;24.454;2023-02-08T14:01:00;12.23;;;8.93;;
8889;SDS011;4481;43.406;24.454;2023-02-08T14:03:31;14.43;;;8.70;;
8889;SDS011;4481;43.406;24.454;2023-02-08T14:05:58;19.83;;;9.83;;
8889;SDS011;4481;43.406;24.454;2023-02-08T14:08:27;22.07;;;11.00;;
8889;SDS011;4481;43.406;24.454;2023-02-08T14:11:02;15.77;;;9.93;;
8889;SDS011;4481;43.406;24.454;2023-02-08T14:13:37;13.13;;;8.40;;
8889;SDS011;4481;43.406;24.454;2023-02-08T14:16:26;16.17;;;8.43;;
8889;SDS011;4481;43.406;24.454;2023-02-08T14:18:54;12.77;;;8.40;;
8889;SDS011;4481;43.406;24.454;2023-02-08T14:21:29;9.97;;;6.73;;
8889;SDS011;4481;43.406;24.454;2023-02-08T14:23:58;11.57;;;6.90;;
8889;SDS011;4481;43.406;24.454;2023-02-08T14:26:28;11.90;;;7.90;;
8889;SDS011;4481;43.406;24.454;2023-02-08T14:28:55;9.17;;;6.87;;
8889;SDS011;4481;43.406;24.454;2023-02-08T14:31:33;11.57;;;8.50;;
8889;SDS011;4481;43.406;24.454;2023-02-08T14:34:01;12.73;;;8.07;;
8889;SDS011;4481;43.406;24.454;2023-02-08T14:36:28;12.17;;;9.40;;
8889;SDS011;4481;43.406;24.454;2023-02-08T14:39:05;14.73;;;8.87;;
8889;SDS011;4481;43.406;24.454;2023-02-08T14:41:50;11.43;;;8.10;;
8889;SDS011;4481;43.406;24.454;2023-02-08T14:47:50;13.90;;;8.50;;
8889;SDS011;4481;43.406;24.454;2023-02-08T14:50:21;15.37;;;10.57;;
8889;SDS011;4481;43.406;24.454;2023-02-08T14:52:53;14.47;;;10.77;;
8889;SDS011;4481;43.406;24.454;2023-02-08T14:55:24;15.50;;;9.97;;
8889;SDS011;4481;43.406;24.454;2023-02-08T14:57:55;15.87;;;9.97;;
8889;SDS011;4481;43.406;24.454;2023-02-08T15:00:24;13.03;;;9.13;;
8889;SDS011;4481;43.406;24.454;2023-02-08T15:02:53;14.67;;;9.37;;
8889;SDS011;4481;43.406;24.454;2023-02-08T15:05:22;13.57;;;9.53;;
8889;SDS011;4481;43.406;24.454;2023-02-08T15:07:51;18.00;;;9.37;;
8889;SDS011;4481;43.406;24.454;2023-02-08T15:10:19;14.63;;;8.77;;
8889;SDS011;4481;43.406;24.454;2023-02-08T15:12:48;11.80;;;8.10;;
8889;SDS011;4481;43.406;24.454;2023-02-08T15:15:21;12.60;;;8.30;;
8889;SDS011;4481;43.406;24.454;2023-02-08T15:17:50;13.73;;;8.67;;
8889;SDS011;4481;43.406;24.454;2023-02-08T15:20:20;13.30;;;9.20;;
8889;SDS011;4481;43.406;24.454;2023-02-08T15:22:48;12.57;;;8.83;;